sensor_id;sensor_type;location;lat;lon;timestamp;pressure;altitude;pressure_sealevel;temperature;humidity
80500;BME280;69823;54.120;-4.710;2023-07-13T00:00:29;99583.55;;;26.09;28.19
80500;BME280;69823;54.120;-4.710;2023-07-13T00:02:54;99580.66;;;26.07;28.22
80500;BME280;69823;54.120;-4.710;2023-07-13T00:05:20;99585.52;;;26.23;28.31
80500;BME280;69823;54.120;-4.710;2023-07-13T00:07:46;99589.72;;;26.35;28.12
80500;BME280;69823;54.120;-4.710;2023-07-13T00:10:12;99586.91;;;26.30;28.16
80500;BME280;69823;54.120;-4.710;2023-07-13T00:12:38;99583.88;;;26.55;28.09
80500;BME280;69823;54.120;-4.710;2023-07-13T00:15:06;99583.56;;;26.61;28.08
80500;BME280;69823;54.120;-4.710;2023-07-13T00:17:29;99583.67;;;26.54;28.16
80500;BME280;69823;54.120;-4.710;2023-07-13T00:19:55;99586.94;;;26.45;27.99
80500;BME280;69823;54.120;-4.710;2023-07-13T00:22:20;99585.26;;;26.29;28.14
80500;BME280;69823;54.120;-4.710;2023-07-13T00:24:46;99585.07;;;26.28;28.09
80500;BME280;69823;54.120;-4.710;2023-07-13T00:27:12;99583.30;;;26.52;28.12
80500;BME280;69823;54.120;-4.710;2023-07-13T00:29:37;99583.76;;;26.37;28.02
80500;BME280;69823;54.120;-4.710;2023-07-13T00:32:04;99581.20;;;26.48;28.13
80500;BME280;69823;54.120;-4.710;2023-07-13T00:34:28;99588.68;;;26.54;27.83
80500;BME280;69823;54.120;-4.710;2023-07-13T00:36:54;99587.58;;;26.32;27.82
80500;BME280;69823;54.120;-4.710;2023-07-13T00:39:20;99586.33;;;26.38;27.73
80500;BME280;69823;54.120;-4.710;2023-07-13T00:41:46;99587.49;;;26.81;27.81
80500;BME280;69823;54.120;-4.710;2023-07-13T00:44:13;99588.20;;;26.56;27.80
80500;BME280;69823;54.120;-4.710;2023-07-13T00:46:37;99584.59;;;26.62;27.92
80500;BME280;69823;54.120;-4.710;2023-07-13T00:49:06;99588.30;;;26.54;27.97
80500;BME280;69823;54.120;-4.710;2023-07-13T00:51:33;99592.98;;;26.40;28.06
80500;BME280;69823;54.120;-4.710;2023-07-13T00:53:58;99588.80;;;26.19;28.02
80500;BME280;69823;54.120;-4.710;2023-07-13T00:56:20;99592.25;;;26.50;27.91
80500;BME280;69823;54.120;-4.710;2023-07-13T00:58:46;99593.16;;;26.31;27.86
80500;BME280;69823;54.120;-4.710;2023-07-13T01:01:11;99590.48;;;26.34;27.81
80500;BME280;69823;54.120;-4.710;2023-07-13T01:03:37;99591.26;;;26.27;27.86
80500;BME280;69823;54.120;-4.710;2023-07-13T01:06:03;99592.89;;;26.47;27.86
80500;BME280;69823;54.120;-4.710;2023-07-13T01:08:28;99591.13;;;26.16;27.94
80500;BME280;69823;54.120;-4.710;2023-07-13T01:10:56;99593.51;;;26.47;27.88
80500;BME280;69823;54.120;-4.710;2023-07-13T01:13:20;99593.60;;;26.35;28.01
80500;BME280;69823;54.120;-4.710;2023-07-13T01:15:48;99593.28;;;26.46;27.89
80500;BME280;69823;54.120;-4.710;2023-07-13T01:18:14;99592.49;;;26.25;27.83
80500;BME280;69823;54.120;-4.710;2023-07-13T01:20:38;99593.19;;;26.20;27.89
80500;BME280;69823;54.120;-4.710;2023-07-13T01:23:05;99588.76;;;26.20;27.91
80500;BME280;69823;54.120;-4.710;2023-07-13T01:25:28;99582.04;;;26.47;27.91
80500;BME280;69823;54.120;-4.710;2023-07-13T01:27:54;99583.51;;;26.23;27.94
80500;BME280;69823;54.120;-4.710;2023-07-13T01:30:20;99586.93;;;26.45;27.92
80500;BME280;69823;54.120;-4.710;2023-07-13T01:32:45;99581.37;;;26.26;27.88
80500;BME280;69823;54.120;-4.710;2023-07-13T01:35:11;99584.00;;;26.25;27.86
80500;BME280;69823;54.120;-4.710;2023-07-13T01:37:37;99583.86;;;26.55;27.80
80500;BME280;69823;54.120;-4.710;2023-07-13T01:40:03;99585.52;;;26.58;27.74
80500;BME280;69823;54.120;-4.710;2023-07-13T01:42:28;99581.99;;;26.50;27.82
80500;BME280;69823;54.120;-4.710;2023-07-13T01:44:54;99582.29;;;26.26;27.85
80500;BME280;69823;54.120;-4.710;2023-07-13T01:47:20;99583.88;;;26.14;27.97
80500;BME280;69823;54.120;-4.710;2023-07-13T01:49:45;99587.10;;;26.08;28.03
80500;BME280;69823;54.120;-4.710;2023-07-13T01:52:11;99586.90;;;26.50;27.85
80500;BME280;69823;54.120;-4.710;2023-07-13T01:54:37;99586.17;;;26.49;27.83
80500;BME280;69823;54.120;-4.710;2023-07-13T01:57:03;99583.75;;;26.33;27.80
80500;BME280;69823;54.120;-4.710;2023-07-13T01:59:28;99581.55;;;26.42;27.93
80500;BME280;69823;54.120;-4.710;2023-07-13T02:01:54;99583.20;;;26.45;27.89
80500;BME280;69823;54.120;-4.710;2023-07-13T02:04:20;99585.27;;;26.22;27.85
80500;BME280;69823;54.120;-4.710;2023-07-13T02:06:45;99586.14;;;26.48;27.86
80500;BME280;69823;54.120;-4.710;2023-07-13T02:09:11;99585.01;;;26.24;27.85
80500;BME280;69823;54.120;-4.710;2023-07-13T02:11:37;99582.09;;;26.47;27.87
80500;BME280;69823;54.120;-4.710;2023-07-13T02:14:03;99584.31;;;26.39;27.97
80500;BME280;69823;54.120;-4.710;2023-07-13T02:16:29;99582.68;;;26.11;27.99
80500;BME280;69823;54.120;-4.710;2023-07-13T02:18:54;99581.40;;;26.36;27.99
80500;BME280;69823;54.120;-4.710;2023-07-13T02:21:20;99584.00;;;26.30;28.02
80500;BME280;69823;54.120;-4.710;2023-07-13T02:23:45;99583.52;;;26.29;28.02
80500;BME280;69823;54.120;-4.710;2023-07-13T02:26:11;99580.96;;;26.11;27.97
80500;BME280;69823;54.120;-4.710;2023-07-13T02:28:37;99581.82;;;25.88;27.95
80500;BME280;69823;54.120;-4.710;2023-07-13T02:31:05;99583.78;;;25.86;27.98
80500;BME280;69823;54.120;-4.710;2023-07-13T02:33:28;99581.15;;;26.36;27.94
80500;BME280;69823;54.120;-4.710;2023-07-13T02:35:54;99581.67;;;26.28;27.99
80500;BME280;69823;54.120;-4.710;2023-07-13T02:38:20;99575.48;;;26.39;27.85
80500;BME280;69823;54.120;-4.710;2023-07-13T02:40:46;99575.51;;;26.35;27.88
80500;BME280;69823;54.120;-4.710;2023-07-13T02:43:12;99577.51;;;26.00;27.96
80500;BME280;69823;54.120;-4.710;2023-07-13T02:45:37;99580.01;;;26.05;27.93
80500;BME280;69823;54.120;-4.710;2023-07-13T02:48:03;99579.40;;;26.28;27.92
80500;BME280;69823;54.120;-4.710;2023-07-13T02:50:28;99575.50;;;26.10;27.86
80500;BME280;69823;54.120;-4.710;2023-07-13T02:52:54;99578.80;;;26.09;27.87
80500;BME280;69823;54.120;-4.710;2023-07-13T02:55:20;99579.25;;;26.33;27.87
80500;BME280;69823;54.120;-4.710;2023-07-13T02:57:45;99578.16;;;26.12;27.83
80500;BME280;69823;54.120;-4.710;2023-07-13T03:00:12;99576.78;;;26.38;27.82
80500;BME280;69823;54.120;-4.710;2023-07-13T03:02:37;99578.44;;;26.34;27.88
80500;BME280;69823;54.120;-4.710;2023-07-13T03:05:05;99578.09;;;26.13;27.83
80500;BME280;69823;54.120;-4.710;2023-07-13T03:07:29;99581.21;;;26.11;27.87
80500;BME280;69823;54.120;-4.710;2023-07-13T03:09:55;99578.68;;;26.09;27.88
80500;BME280;69823;54.120;-4.710;2023-07-13T03:12:20;99576.84;;;26.33;27.87
80500;BME280;69823;54.120;-4.710;2023-07-13T03:14:45;99580.38;;;26.29;27.91
80500;BME280;69823;54.120;-4.710;2023-07-13T03:17:11;99585.51;;;26.08;27.87
80500;BME280;69823;54.120;-4.710;2023-07-13T03:19:37;99586.32;;;26.04;27.91
80500;BME280;69823;54.120;-4.710;2023-07-13T03:22:03;99587.24;;;26.28;27.89
80500;BME280;69823;54.120;-4.710;2023-07-13T03:24:28;99585.98;;;25.99;27.92
80500;BME280;69823;54.120;-4.710;2023-07-13T03:26:54;99586.10;;;25.99;27.91
80500;BME280;69823;54.120;-4.710;2023-07-13T03:29:20;99588.02;;;25.99;27.89
80500;BME280;69823;54.120;-4.710;2023-07-13T03:31:45;99585.74;;;26.09;27.77
80500;BME280;69823;54.120;-4.710;2023-07-13T03:34:11;99586.75;;;26.10;27.69
80500;BME280;69823;54.120;-4.710;2023-07-13T03:36:37;99581.34;;;26.12;27.68
80500;BME280;69823;54.120;-4.710;2023-07-13T03:39:03;99586.46;;;26.27;27.74
80500;BME280;69823;54.120;-4.710;2023-07-13T03:41:28;99585.94;;;26.06;27.68
80500;BME280;69823;54.120;-4.710;2023-07-13T03:43:54;99586.80;;;26.34;27.61
80500;BME280;69823;54.120;-4.710;2023-07-13T03:46:20;99587.21;;;26.27;27.63
80500;BME280;69823;54.120;-4.710;2023-07-13T03:48:46;99589.40;;;26.03;27.65
80500;BME280;69823;54.120;-4.710;2023-07-13T03:51:12;99589.77;;;25.87;27.56
80500;BME280;69823;54.120;-4.710;2023-07-13T03:53:37;99594.62;;;26.29;27.60
80500;BME280;69823;54.120;-4.710;2023-07-13T03:56:03;99599.57;;;26.27;27.61
80500;BME280;69823;54.120;-4.710;2023-07-13T03:58:30;99601.42;;;26.25;27.60
80500;BME280;69823;54.120;-4.710;2023-07-13T04:00:54;99599.31;;;26.05;27.56
80500;BME280;69823;54.120;-4.710;2023-07-13T04:03:20;99597.77;;;26.34;27.50
80500;BME280;69823;54.120;-4.710;2023-07-13T04:05:45;99595.32;;;26.32;27.45
80500;BME280;69823;54.120;-4.710;2023-07-13T04:08:11;99596.36;;;26.26;27.53
80500;BME280;69823;54.120;-4.710;2023-07-13T04:10:37;99599.16;;;26.17;27.58
80500;BME280;69823;54.120;-4.710;2023-07-13T04:13:02;99598.12;;;26.26;27.47
80500;BME280;69823;54.120;-4.710;2023-07-13T04:15:29;99600.07;;;26.30;27.45
80500;BME280;69823;54.120;-4.710;2023-07-13T04:17:54;99599.71;;;26.15;27.59
80500;BME280;69823;54.120;-4.710;2023-07-13T04:20:20;99603.29;;;26.04;27.48
80500;BME280;69823;54.120;-4.710;2023-07-13T04:22:45;99605.58;;;26.28;27.44
80500;BME280;69823;54.120;-4.710;2023-07-13T04:25:11;99609.87;;;26.02;27.43
80500;BME280;69823;54.120;-4.710;2023-07-13T04:27:37;99610.95;;;26.33;27.36
80500;BME280;69823;54.120;-4.710;2023-07-13T04:30:03;99616.13;;;25.99;27.47
80500;BME280;69823;54.120;-4.710;2023-07-13T04:32:28;99616.17;;;26.28;27.44
80500;BME280;69823;54.120;-4.710;2023-07-13T04:34:54;99616.50;;;26.28;27.40
80500;BME280;69823;54.120;-4.710;2023-07-13T04:37:20;99617.23;;;26.31;27.34
80500;BME280;69823;54.120;-4.710;2023-07-13T04:39:45;99613.98;;;26.30;27.34
80500;BME280;69823;54.120;-4.710;2023-07-13T04:42:11;99614.60;;;26.29;27.31
80500;BME280;69823;54.120;-4.710;2023-07-13T04:44:37;99615.64;;;26.19;27.43
80500;BME280;69823;54.120;-4.710;2023-07-13T04:47:03;99615.90;;;26.25;27.36
80500;BME280;69823;54.120;-4.710;2023-07-13T04:49:28;99614.93;;;25.96;27.40
80500;BME280;69823;54.120;-4.710;2023-07-13T04:51:54;99617.13;;;26.18;27.40
80500;BME280;69823;54.120;-4.710;2023-07-13T04:54:20;99620.08;;;26.20;27.38
80500;BME280;69823;54.120;-4.710;2023-07-13T04:56:45;99622.16;;;26.24;27.37
80500;BME280;69823;54.120;-4.710;2023-07-13T04:59:11;99622.59;;;26.20;27.39
80500;BME280;69823;54.120;-4.710;2023-07-13T05:01:37;99623.21;;;25.96;27.40
80500;BME280;69823;54.120;-4.710;2023-07-13T05:04:03;99621.31;;;26.24;27.35
80500;BME280;69823;54.120;-4.710;2023-07-13T05:06:28;99624.36;;;26.25;27.31
80500;BME280;69823;54.120;-4.710;2023-07-13T05:08:54;99626.60;;;26.28;27.30
80500;BME280;69823;54.120;-4.710;2023-07-13T05:11:20;99632.04;;;26.06;27.24
80500;BME280;69823;54.120;-4.710;2023-07-13T05:13:45;99635.51;;;26.04;27.25
80500;BME280;69823;54.120;-4.710;2023-07-13T05:16:11;99636.37;;;26.22;27.32
80500;BME280;69823;54.120;-4.710;2023-07-13T05:18:37;99635.96;;;26.18;27.38
80500;BME280;69823;54.120;-4.710;2023-07-13T05:21:05;99635.20;;;26.12;27.40
80500;BME280;69823;54.120;-4.710;2023-07-13T05:23:29;99635.32;;;26.11;27.45
80500;BME280;69823;54.120;-4.710;2023-07-13T05:25:54;99635.76;;;26.16;27.41
80500;BME280;69823;54.120;-4.710;2023-07-13T05:28:21;99633.86;;;26.12;27.47
80500;BME280;69823;54.120;-4.710;2023-07-13T05:30:45;99635.15;;;26.20;27.43
80500;BME280;69823;54.120;-4.710;2023-07-13T05:33:11;99636.47;;;26.36;27.50
80500;BME280;69823;54.120;-4.710;2023-07-13T05:35:37;99638.94;;;26.10;27.55
80500;BME280;69823;54.120;-4.710;2023-07-13T05:38:02;99643.43;;;25.88;27.54
80500;BME280;69823;54.120;-4.710;2023-07-13T05:40:28;99646.07;;;25.93;27.44
80500;BME280;69823;54.120;-4.710;2023-07-13T05:42:54;99647.58;;;26.19;27.41
80500;BME280;69823;54.120;-4.710;2023-07-13T05:45:20;99650.72;;;26.43;27.41
80500;BME280;69823;54.120;-4.710;2023-07-13T05:47:45;99652.68;;;26.30;27.31
80500;BME280;69823;54.120;-4.710;2023-07-13T05:50:11;99657.63;;;26.33;27.26
80500;BME280;69823;54.120;-4.710;2023-07-13T05:52:37;99663.49;;;26.39;27.19
80500;BME280;69823;54.120;-4.710;2023-07-13T05:55:03;99661.77;;;26.44;27.10
80500;BME280;69823;54.120;-4.710;2023-07-13T05:57:29;99664.69;;;26.28;27.60
80500;BME280;69823;54.120;-4.710;2023-07-13T05:59:54;99660.96;;;26.46;27.34
80500;BME280;69823;54.120;-4.710;2023-07-13T06:02:20;99659.15;;;26.56;27.10
80500;BME280;69823;54.120;-4.710;2023-07-13T06:04:45;99661.87;;;26.49;27.10
80500;BME280;69823;54.120;-4.710;2023-07-13T06:07:11;99663.82;;;26.45;27.17
80500;BME280;69823;54.120;-4.710;2023-07-13T06:09:37;99666.86;;;26.46;27.10
80500;BME280;69823;54.120;-4.710;2023-07-13T06:12:03;99667.22;;;26.65;26.91
80500;BME280;69823;54.120;-4.710;2023-07-13T06:14:28;99668.94;;;25.35;28.62
80500;BME280;69823;54.120;-4.710;2023-07-13T06:16:54;99672.56;;;26.00;27.80
80500;BME280;69823;54.120;-4.710;2023-07-13T06:19:20;99674.97;;;25.91;28.03
80500;BME280;69823;54.120;-4.710;2023-07-13T06:21:45;99669.65;;;26.41;27.32
80500;BME280;69823;54.120;-4.710;2023-07-13T06:24:11;99675.07;;;26.34;27.07
80500;BME280;69823;54.120;-4.710;2023-07-13T06:26:37;99676.12;;;26.56;27.02
80500;BME280;69823;54.120;-4.710;2023-07-13T06:29:03;99676.91;;;26.55;26.98
80500;BME280;69823;54.120;-4.710;2023-07-13T06:31:28;99680.22;;;26.16;27.55
80500;BME280;69823;54.120;-4.710;2023-07-13T06:33:54;99685.19;;;26.38;27.32
80500;BME280;69823;54.120;-4.710;2023-07-13T06:36:20;99689.16;;;26.46;27.11
80500;BME280;69823;54.120;-4.710;2023-07-13T06:38:46;99692.55;;;26.51;27.00
80500;BME280;69823;54.120;-4.710;2023-07-13T06:41:11;99692.79;;;26.50;26.95
80500;BME280;69823;54.120;-4.710;2023-07-13T06:43:37;99696.58;;;26.44;27.03
80500;BME280;69823;54.120;-4.710;2023-07-13T06:46:03;99694.20;;;26.45;27.03
80500;BME280;69823;54.120;-4.710;2023-07-13T06:48:29;99699.35;;;26.40;27.04
80500;BME280;69823;54.120;-4.710;2023-07-13T06:50:54;99703.51;;;26.33;27.12
80500;BME280;69823;54.120;-4.710;2023-07-13T06:53:20;99703.72;;;26.06;27.08
80500;BME280;69823;54.120;-4.710;2023-07-13T06:55:46;99702.94;;;26.26;27.19
80500;BME280;69823;54.120;-4.710;2023-07-13T06:58:12;99700.44;;;26.37;27.06
80500;BME280;69823;54.120;-4.710;2023-07-13T07:00:37;99703.28;;;26.33;27.05
80500;BME280;69823;54.120;-4.710;2023-07-13T07:03:03;99702.88;;;26.28;27.10
80500;BME280;69823;54.120;-4.710;2023-07-13T07:05:29;99703.86;;;26.05;27.07
80500;BME280;69823;54.120;-4.710;2023-07-13T07:07:55;99705.06;;;26.22;27.16
80500;BME280;69823;54.120;-4.710;2023-07-13T07:10:20;99708.56;;;26.26;27.04
80500;BME280;69823;54.120;-4.710;2023-07-13T07:12:46;99709.64;;;26.24;27.03
80500;BME280;69823;54.120;-4.710;2023-07-13T07:15:12;99711.61;;;26.30;27.00
80500;BME280;69823;54.120;-4.710;2023-07-13T07:17:37;99714.58;;;26.28;27.03
80500;BME280;69823;54.120;-4.710;2023-07-13T07:20:04;99711.85;;;26.29;27.01
80500;BME280;69823;54.120;-4.710;2023-07-13T07:22:29;99708.85;;;26.35;26.92
80500;BME280;69823;54.120;-4.710;2023-07-13T07:24:55;99708.70;;;26.21;27.12
80500;BME280;69823;54.120;-4.710;2023-07-13T07:27:20;99709.34;;;26.20;27.09
80500;BME280;69823;54.120;-4.710;2023-07-13T07:29:46;99711.33;;;26.19;27.11
80500;BME280;69823;54.120;-4.710;2023-07-13T07:32:12;99711.60;;;25.73;27.70
80500;BME280;69823;54.120;-4.710;2023-07-13T07:34:37;99713.40;;;25.85;27.30
80500;BME280;69823;54.120;-4.710;2023-07-13T07:37:04;99714.50;;;26.21;27.15
80500;BME280;69823;54.120;-4.710;2023-07-13T07:39:29;99710.84;;;26.25;27.12
80500;BME280;69823;54.120;-4.710;2023-07-13T07:41:55;99716.40;;;26.55;26.96
80500;BME280;69823;54.120;-4.710;2023-07-13T07:44:21;99717.62;;;26.55;26.95
80500;BME280;69823;54.120;-4.710;2023-07-13T07:46:46;99717.92;;;26.26;26.99
80500;BME280;69823;54.120;-4.710;2023-07-13T07:49:12;99722.90;;;26.24;26.98
80500;BME280;69823;54.120;-4.710;2023-07-13T07:51:37;99723.45;;;26.23;27.01
80500;BME280;69823;54.120;-4.710;2023-07-13T07:54:03;99727.90;;;26.11;27.10
80500;BME280;69823;54.120;-4.710;2023-07-13T07:56:29;99727.77;;;26.13;27.08
80500;BME280;69823;54.120;-4.710;2023-07-13T07:58:55;99726.80;;;26.15;27.01
80500;BME280;69823;54.120;-4.710;2023-07-13T08:01:20;99725.32;;;26.63;27.01
80500;BME280;69823;54.120;-4.710;2023-07-13T08:03:46;99730.32;;;26.11;27.10
80500;BME280;69823;54.120;-4.710;2023-07-13T08:06:12;99731.69;;;26.10;27.05
80500;BME280;69823;54.120;-4.710;2023-07-13T08:08:37;99731.30;;;26.10;27.04
80500;BME280;69823;54.120;-4.710;2023-07-13T08:11:04;99730.69;;;26.00;27.15
80500;BME280;69823;54.120;-4.710;2023-07-13T08:13:29;99731.00;;;25.99;27.17
80500;BME280;69823;54.120;-4.710;2023-07-13T08:15:55;99732.68;;;25.98;27.19
80500;BME280;69823;54.120;-4.710;2023-07-13T08:18:20;99731.78;;;25.98;27.24
80500;BME280;69823;54.120;-4.710;2023-07-13T08:20:46;99733.48;;;25.92;27.20
80500;BME280;69823;54.120;-4.710;2023-07-13T08:23:12;99737.95;;;26.43;27.15
80500;BME280;69823;54.120;-4.710;2023-07-13T08:25:38;99737.82;;;25.97;27.17
80500;BME280;69823;54.120;-4.710;2023-07-13T08:28:04;99740.17;;;25.92;27.21
80500;BME280;69823;54.120;-4.710;2023-07-13T08:30:29;99743.48;;;25.78;27.35
80500;BME280;69823;54.120;-4.710;2023-07-13T08:32:55;99743.57;;;25.87;27.15
80500;BME280;69823;54.120;-4.710;2023-07-13T08:35:21;99739.65;;;25.79;27.39
80500;BME280;69823;54.120;-4.710;2023-07-13T08:37:46;99741.98;;;25.81;27.42
80500;BME280;69823;54.120;-4.710;2023-07-13T08:40:12;99743.28;;;25.86;27.36
80500;BME280;69823;54.120;-4.710;2023-07-13T08:42:42;99741.48;;;26.07;27.37
80500;BME280;69823;54.120;-4.710;2023-07-13T08:45:11;99740.92;;;25.98;27.46
80500;BME280;69823;54.120;-4.710;2023-07-13T08:47:31;99745.60;;;26.08;27.33
80500;BME280;69823;54.120;-4.710;2023-07-13T08:49:55;99747.17;;;25.77;27.42
80500;BME280;69823;54.120;-4.710;2023-07-13T08:52:29;99749.70;;;25.63;27.72
80500;BME280;69823;54.120;-4.710;2023-07-13T08:54:49;99752.98;;;25.67;27.55
80500;BME280;69823;54.120;-4.710;2023-07-13T08:57:14;99753.29;;;26.05;27.45
80500;BME280;69823;54.120;-4.710;2023-07-13T08:59:38;99756.74;;;25.66;27.59
80500;BME280;69823;54.120;-4.710;2023-07-13T09:02:17;99758.02;;;25.99;27.54
80500;BME280;69823;54.120;-4.710;2023-07-13T09:04:33;99760.14;;;25.61;27.66
80500;BME280;69823;54.120;-4.710;2023-07-13T09:07:05;99759.29;;;25.59;27.67
80500;BME280;69823;54.120;-4.710;2023-07-13T09:09:26;99759.81;;;25.79;27.67
80500;BME280;69823;54.120;-4.710;2023-07-13T09:11:52;99758.14;;;26.04;27.18
80500;BME280;69823;54.120;-4.710;2023-07-13T09:14:29;99758.64;;;25.72;27.59
80500;BME280;69823;54.120;-4.710;2023-07-13T09:16:39;99759.45;;;26.27;27.10
80500;BME280;69823;54.120;-4.710;2023-07-13T09:19:06;99761.05;;;25.97;27.18
80500;BME280;69823;54.120;-4.710;2023-07-13T09:21:32;99760.79;;;25.98;27.10
80500;BME280;69823;54.120;-4.710;2023-07-13T09:24:21;99760.56;;;26.29;26.89
80500;BME280;69823;54.120;-4.710;2023-07-13T09:26:23;99761.51;;;26.36;26.78
80500;BME280;69823;54.120;-4.710;2023-07-13T09:28:51;99763.61;;;26.23;26.83
80500;BME280;69823;54.120;-4.710;2023-07-13T09:31:16;99763.23;;;26.42;26.91
80500;BME280;69823;54.120;-4.710;2023-07-13T09:33:38;99763.71;;;25.86;27.00
80500;BME280;69823;54.120;-4.710;2023-07-13T09:36:17;99763.13;;;26.36;26.69
80500;BME280;69823;54.120;-4.710;2023-07-13T09:38:30;99760.05;;;26.36;26.66
80500;BME280;69823;54.120;-4.710;2023-07-13T09:41:01;99760.02;;;26.31;26.68
80500;BME280;69823;54.120;-4.710;2023-07-13T09:43:21;99758.86;;;26.39;26.58
80500;BME280;69823;54.120;-4.710;2023-07-13T09:45:47;99761.65;;;26.57;26.42
80500;BME280;69823;54.120;-4.710;2023-07-13T09:48:15;99761.34;;;26.96;26.17
80500;BME280;69823;54.120;-4.710;2023-07-13T09:50:39;99763.24;;;26.50;26.57
80500;BME280;69823;54.120;-4.710;2023-07-13T09:53:11;99762.22;;;26.32;26.82
80500;BME280;69823;54.120;-4.710;2023-07-13T09:55:32;99762.84;;;26.12;26.92
80500;BME280;69823;54.120;-4.710;2023-07-13T09:57:56;99762.35;;;26.07;27.12
80500;BME280;69823;54.120;-4.710;2023-07-13T10:00:24;99763.29;;;26.12;27.05
80500;BME280;69823;54.120;-4.710;2023-07-13T10:02:58;99763.37;;;26.36;26.59
80500;BME280;69823;54.120;-4.710;2023-07-13T10:05:14;99767.49;;;27.05;26.17
80500;BME280;69823;54.120;-4.710;2023-07-13T10:07:43;99771.80;;;27.22;25.79
80500;BME280;69823;54.120;-4.710;2023-07-13T10:10:13;99775.18;;;27.21;25.77
80500;BME280;69823;54.120;-4.710;2023-07-13T10:12:36;99780.36;;;27.64;25.55
80500;BME280;69823;54.120;-4.710;2023-07-13T10:14:59;99785.91;;;27.72;25.51
80500;BME280;69823;54.120;-4.710;2023-07-13T10:17:29;99789.75;;;27.62;25.32
80500;BME280;69823;54.120;-4.710;2023-07-13T10:19:47;99790.61;;;27.89;25.02
80500;BME280;69823;54.120;-4.710;2023-07-13T10:22:20;99793.09;;;27.87;25.00
80500;BME280;69823;54.120;-4.710;2023-07-13T10:24:39;99795.36;;;27.94;24.92
80500;BME280;69823;54.120;-4.710;2023-07-13T10:27:10;99793.53;;;28.29;24.67
80500;BME280;69823;54.120;-4.710;2023-07-13T10:29:36;99798.95;;;28.00;24.96
80500;BME280;69823;54.120;-4.710;2023-07-13T10:31:56;99796.90;;;27.76;24.96
80500;BME280;69823;54.120;-4.710;2023-07-13T10:34:22;99801.42;;;27.80;24.95
80500;BME280;69823;54.120;-4.710;2023-07-13T10:36:48;99799.89;;;27.69;25.09
80500;BME280;69823;54.120;-4.710;2023-07-13T10:39:16;99799.89;;;27.86;25.16
80500;BME280;69823;54.120;-4.710;2023-07-13T10:41:40;99799.62;;;27.82;24.95
80500;BME280;69823;54.120;-4.710;2023-07-13T10:44:12;99805.32;;;27.98;25.04
80500;BME280;69823;54.120;-4.710;2023-07-13T10:46:31;99805.30;;;28.20;25.06
80500;BME280;69823;54.120;-4.710;2023-07-13T10:48:58;99807.11;;;27.88;25.19
80500;BME280;69823;54.120;-4.710;2023-07-13T10:51:22;99809.08;;;28.04;25.26
80500;BME280;69823;54.120;-4.710;2023-07-13T10:56:21;99812.78;;;28.17;25.09
80500;BME280;69823;54.120;-4.710;2023-07-13T10:58:40;99813.70;;;28.02;24.98
80500;BME280;69823;54.120;-4.710;2023-07-13T11:01:08;99811.84;;;28.10;24.97
80500;BME280;69823;54.120;-4.710;2023-07-13T11:03:33;99813.34;;;28.00;25.35
80500;BME280;69823;54.120;-4.710;2023-07-13T11:06:07;99819.11;;;27.35;25.56
80500;BME280;69823;54.120;-4.710;2023-07-13T11:10:50;99823.37;;;27.51;25.58
80500;BME280;69823;54.120;-4.710;2023-07-13T11:15:44;99820.48;;;27.38;25.45
80500;BME280;69823;54.120;-4.710;2023-07-13T11:18:04;99819.47;;;28.24;25.04
80500;BME280;69823;54.120;-4.710;2023-07-13T11:20:35;99818.02;;;28.14;25.13
80500;BME280;69823;54.120;-4.710;2023-07-13T11:25:25;99821.31;;;27.90;25.07
80500;BME280;69823;54.120;-4.710;2023-07-13T11:27:49;99816.17;;;27.89;25.02
80500;BME280;69823;54.120;-4.710;2023-07-13T11:30:23;99818.88;;;27.98;24.91
80500;BME280;69823;54.120;-4.710;2023-07-13T11:32:36;99817.68;;;27.94;24.96
80500;BME280;69823;54.120;-4.710;2023-07-13T11:35:01;99817.55;;;28.10;24.98
80500;BME280;69823;54.120;-4.710;2023-07-13T11:37:28;99824.68;;;27.79;25.13
80500;BME280;69823;54.120;-4.710;2023-07-13T11:39:52;99822.30;;;27.77;25.41
80500;BME280;69823;54.120;-4.710;2023-07-13T11:42:18;99823.92;;;28.08;25.16
80500;BME280;69823;54.120;-4.710;2023-07-13T11:44:45;99822.14;;;28.04;25.19
80500;BME280;69823;54.120;-4.710;2023-07-13T11:47:10;99820.35;;;27.87;25.18
80500;BME280;69823;54.120;-4.710;2023-07-13T11:49:40;99819.73;;;27.44;25.63
80500;BME280;69823;54.120;-4.710;2023-07-13T11:51:59;99815.67;;;28.08;25.30
80500;BME280;69823;54.120;-4.710;2023-07-13T11:54:27;99816.48;;;27.93;25.19
80500;BME280;69823;54.120;-4.710;2023-07-13T11:56:49;99820.22;;;28.34;24.72
80500;BME280;69823;54.120;-4.710;2023-07-13T11:59:14;99820.60;;;28.24;25.03
80500;BME280;69823;54.120;-4.710;2023-07-13T12:01:43;99813.74;;;28.10;24.96
80500;BME280;69823;54.120;-4.710;2023-07-13T12:04:05;99812.89;;;27.99;25.08
80500;BME280;69823;54.120;-4.710;2023-07-13T12:06:32;99817.11;;;28.14;25.19
80500;BME280;69823;54.120;-4.710;2023-07-13T12:08:57;99808.32;;;28.25;25.15
80500;BME280;69823;54.120;-4.710;2023-07-13T12:11:21;99807.61;;;28.07;25.13
80500;BME280;69823;54.120;-4.710;2023-07-13T12:13:47;99803.66;;;27.83;25.35
80500;BME280;69823;54.120;-4.710;2023-07-13T12:16:15;99802.35;;;27.98;25.26
80500;BME280;69823;54.120;-4.710;2023-07-13T12:18:37;99807.75;;;28.58;24.94
80500;BME280;69823;54.120;-4.710;2023-07-13T12:21:03;99803.30;;;28.46;25.06
80500;BME280;69823;54.120;-4.710;2023-07-13T12:23:31;99801.93;;;28.69;24.85
80500;BME280;69823;54.120;-4.710;2023-07-13T12:25:54;99800.78;;;28.50;25.01
80500;BME280;69823;54.120;-4.710;2023-07-13T12:28:20;99798.38;;;28.53;25.06
80500;BME280;69823;54.120;-4.710;2023-07-13T12:30:48;99797.83;;;28.25;25.18
80500;BME280;69823;54.120;-4.710;2023-07-13T12:33:12;99802.05;;;28.36;25.03
80500;BME280;69823;54.120;-4.710;2023-07-13T12:35:40;99801.91;;;28.35;25.02
80500;BME280;69823;54.120;-4.710;2023-07-13T12:38:01;99797.15;;;28.27;25.19
80500;BME280;69823;54.120;-4.710;2023-07-13T12:40:34;99798.49;;;28.30;25.19
80500;BME280;69823;54.120;-4.710;2023-07-13T12:42:51;99795.57;;;28.50;24.99
80500;BME280;69823;54.120;-4.710;2023-07-13T12:45:19;99795.75;;;28.30;24.99
80500;BME280;69823;54.120;-4.710;2023-07-13T12:47:43;99795.28;;;28.43;25.07
80500;BME280;69823;54.120;-4.710;2023-07-13T12:50:15;99794.10;;;28.58;24.92